Main page
METAR-TAF:

METAR-TAF

Airports :

Piacenza, Italy

Piacenza Air Base

latitude: 44-55N, longitude: 009-44E, elevation: 134 m

Current weather observation

The report was made 22 hours and 43 minutes ago, at 17:55 UTC
Wind 6 kt from the East
Temperature 30°C
Humidity 66%
Pressure 1009 hPa
Visibility 10 km or more
Few clouds at a height of 4000 ft
Scattered clouds at a height of 8000 ft

METAR: LIMS 211755Z 09006KT 9999 FEW040 SCT080 30/23 Q1009 RMK BKN VIS MIN 9999 WIND THR30 05002KT BLU

Time: 18:38 (16:38 UTC)

Forecast

The report was made 23 hours and 38 minutes ago, at 17:00 UTC
Forecast valid from 21 at 18 UTC to 22 at 03 UTC
Wind 5 kt from the Northeast
Visibility 10 km or more
Few clouds at a height of 4000 ft
Temporary
from 21 at 18 UTC to 21 at 24 UTC
Visibility: 5000 m
Few clouds at a height of 2000 ft, Cumulonimbus.
Scattered clouds at a height of 5000 ft
thunderstorm, rain

TAF: LIMS 211700Z 2118/2203 04005KT 9999 FEW040 TEMPO 2118/2124 5000 TSRA FEW020CB SCT050

Weather observations and forecasts of more than 4000 airports (METAR and TAF reports).

The available stations are represented by yellow and red dots on the map.

Hover mouse over dot to see the name of the station.

Then click to see weather observations and forecasts.

To change the map : click on the green buttons with a black cross to zoom in, on the green button with a dash to zoom out, or on the green arrows for adjacent maps.


METAR-TAF: